Time;durP1;ratioP1;P1;durP2;ratioP2;P2;SDS_P1;SDS_P2;PMS_P1;PMS_P2;Temp;Humidity;BMP_temperature;BMP_pressure;BME280_temperature;BME280_humidity;BME280_pressure;Samples;Min_cycle;Max_cycle;Signal;HPM_P1;HPM_P2
2021/03/12 00:02:19;;;;;;;0.80;0.50;;;5.30;99.90;;;;;;4885715;29;20195;-93
2021/03/12 00:04:45;;;;;;;0.53;0.40;;;5.30;99.90;;;;;;4887098;29;20233;-91
2021/03/12 00:07:10;;;;;;;0.97;0.60;;;5.40;99.90;;;;;;4888213;29;20231;-92
2021/03/12 00:09:36;;;;;;;0.50;0.43;;;5.40;99.90;;;;;;4885588;29;20431;-90
2021/03/12 00:12:02;;;;;;;1.23;0.40;;;5.40;99.90;;;;;;4903692;29;20218;-92
2021/03/12 00:14:28;;;;;;;0.83;0.60;;;5.40;99.90;;;;;;4886072;29;20672;-92
2021/03/12 00:16:54;;;;;;;1.50;0.50;;;5.50;99.90;;;;;;4888291;29;20515;-93
2021/03/12 00:19:20;;;;;;;1.03;0.60;;;5.50;99.90;;;;;;4889837;29;20290;-94
2021/03/12 00:21:46;;;;;;;1.07;0.50;;;5.50;99.90;;;;;;4886400;29;20487;-93
2021/03/12 00:24:12;;;;;;;1.03;0.40;;;5.50;99.90;;;;;;4894650;29;20236;-95
2021/03/12 00:26:38;;;;;;;1.07;0.47;;;5.50;99.90;;;;;;4903866;29;20360;-93
2021/03/12 00:29:04;;;;;;;0.43;0.30;;;5.50;99.90;;;;;;4886291;29;21033;-92
2021/03/12 00:31:29;;;;;;;1.43;0.40;;;5.50;99.90;;;;;;4884313;29;20688;-91
2021/03/12 00:33:55;;;;;;;0.50;0.50;;;5.50;99.90;;;;;;4882007;29;20826;-91
2021/03/12 00:36:21;;;;;;;0.50;0.30;;;5.60;99.90;;;;;;4898345;29;20196;-90
2021/03/12 00:38:46;;;;;;;1.17;0.43;;;5.70;99.90;;;;;;4886812;29;20296;-91
2021/03/12 00:41:12;;;;;;;0.77;0.77;;;5.80;99.90;;;;;;4901799;29;20196;-90
2021/03/12 00:43:38;;;;;;;1.70;0.73;;;5.90;99.90;;;;;;4883976;29;20180;-90
2021/03/12 00:46:07;;;;;;;0.80;0.50;;;5.90;99.90;;;;;;4885130;29;20200;-92
2021/03/12 00:48:32;;;;;;;0.60;0.37;;;5.90;99.90;;;;;;4883323;29;20487;-92
2021/03/12 00:50:58;;;;;;;2.27;0.60;;;5.90;99.90;;;;;;4880628;29;20864;-92
2021/03/12 00:53:25;;;;;;;2.77;0.40;;;5.90;99.90;;;;;;4881266;29;20211;-91
2021/03/12 00:55:51;;;;;;;1.37;0.50;;;6.00;99.90;;;;;;4884988;29;20511;-90
2021/03/12 00:58:17;;;;;;;1.13;0.50;;;6.00;99.90;;;;;;4885183;29;20455;-91
2021/03/12 01:00:43;;;;;;;1.13;0.43;;;6.00;99.90;;;;;;4881424;29;20535;-92
2021/03/12 01:03:11;;;;;;;1.37;0.53;;;6.00;99.90;;;;;;4881851;29;21073;-92
2021/03/12 01:05:37;;;;;;;4.87;0.77;;;6.00;99.90;;;;;;4881585;29;20488;-92
2021/03/12 01:08:03;;;;;;;0.40;0.40;;;6.00;99.90;;;;;;4886362;29;20583;-92
2021/03/12 01:10:29;;;;;;;1.80;0.50;;;6.00;99.90;;;;;;4884107;29;20443;-93
2021/03/12 01:12:55;;;;;;;5.40;1.83;;;6.00;99.90;;;;;;4884548;29;20456;-93
2021/03/12 01:15:24;;;;;;;1.80;0.47;;;6.00;99.90;;;;;;4883990;29;21109;-93
2021/03/12 01:17:50;;;;;;;2.77;0.70;;;6.10;99.90;;;;;;4879691;29;20595;-92
2021/03/12 01:20:22;;;;;;;2.10;0.70;;;6.20;99.90;;;;;;4882916;29;20465;-90
2021/03/12 01:22:49;;;;;;;1.30;0.50;;;6.10;99.90;;;;;;4899711;29;21317;-91
2021/03/12 01:25:20;;;;;;;2.73;0.60;;;6.20;99.90;;;;;;4880156;29;20455;-90
2021/03/12 01:27:46;;;;;;;2.30;0.60;;;6.30;99.90;;;;;;4903400;29;20511;-92
2021/03/12 01:30:12;;;;;;;1.50;0.70;;;6.30;99.90;;;;;;4884762;29;20461;-92
2021/03/12 01:32:38;;;;;;;2.70;0.60;;;6.40;99.90;;;;;;4883229;29;20452;-92
2021/03/12 01:35:05;;;;;;;1.90;0.50;;;6.60;99.90;;;;;;4884146;29;20998;-92
2021/03/12 01:37:30;;;;;;;1.13;0.60;;;6.70;99.90;;;;;;4901766;29;20735;-93
2021/03/12 01:39:56;;;;;;;1.63;0.60;;;6.80;99.90;;;;;;4887551;29;20704;-93
2021/03/12 01:42:22;;;;;;;2.40;0.70;;;6.90;99.90;;;;;;4887783;29;20235;-94
2021/03/12 01:44:49;;;;;;;3.30;0.97;;;6.90;99.90;;;;;;4881038;29;20199;-92
2021/03/12 01:47:15;;;;;;;2.30;2.10;;;6.90;99.90;;;;;;4884067;29;20627;-92
2021/03/12 01:49:41;;;;;;;2.10;0.60;;;6.80;99.90;;;;;;4882151;29;20452;-91
2021/03/12 01:52:07;;;;;;;0.97;0.40;;;6.70;99.90;;;;;;4882223;29;20212;-91
2021/03/12 01:54:34;;;;;;;3.00;0.80;;;6.60;99.90;;;;;;4882216;29;20564;-92
2021/03/12 01:57:04;;;;;;;1.60;0.80;;;6.50;99.90;;;;;;4884805;29;20664;-92
2021/03/12 01:59:30;;;;;;;1.10;0.50;;;6.40;99.90;;;;;;4883003;29;20456;-94
2021/03/12 02:01:56;;;;;;;2.30;0.60;;;6.30;99.90;;;;;;4885476;29;20445;-94
2021/03/12 02:04:22;;;;;;;0.60;0.40;;;6.30;99.90;;;;;;4886254;29;20267;-94
2021/03/12 02:06:48;;;;;;;2.13;0.50;;;6.40;99.90;;;;;;4886188;29;20480;-92
2021/03/12 02:09:15;;;;;;;2.30;0.50;;;6.40;99.90;;;;;;4883636;29;21082;-93
2021/03/12 02:11:45;;;;;;;2.80;0.70;;;6.30;99.90;;;;;;4887209;29;20203;-91
2021/03/12 02:14:25;;;;;;;0.77;0.50;;;6.40;99.90;;;;;;4882514;29;20498;-93
2021/03/12 02:17:01;;;;;;;2.53;0.50;;;6.50;99.90;;;;;;4885393;29;20600;-95
2021/03/12 02:19:36;;;;;;;0.67;0.50;;;6.60;99.90;;;;;;4887821;29;20554;-94
2021/03/12 02:22:07;;;;;;;1.47;0.30;;;6.60;99.90;;;;;;4898454;29;20472;-94
2021/03/12 02:24:54;;;;;;;1.57;0.67;;;6.50;99.90;;;;;;4881735;29;20444;-93
2021/03/12 02:27:21;;;;;;;3.23;1.43;;;6.50;99.90;;;;;;4886649;29;20682;-94
2021/03/12 02:30:00;;;;;;;2.97;0.80;;;6.50;99.90;;;;;;4887750;29;20495;-96
2021/03/12 02:32:31;;;;;;;1.53;0.33;;;6.50;99.90;;;;;;4884310;29;20476;-95
2021/03/12 02:35:01;;;;;;;3.03;0.80;;;6.50;99.90;;;;;;4889427;29;20460;-95
2021/03/12 02:37:28;;;;;;;3.20;0.50;;;6.40;99.90;;;;;;4888905;29;20468;-94
2021/03/12 02:40:05;;;;;;;2.03;0.50;;;6.50;99.90;;;;;;4885062;29;20452;-95
2021/03/12 02:42:32;;;;;;;1.43;0.60;;;6.40;99.90;;;;;;4889439;29;20448;-94
2021/03/12 02:45:00;;;;;;;2.10;0.70;;;6.40;99.90;;;;;;4882301;29;20464;-94
2021/03/12 02:47:28;;;;;;;2.70;0.60;;;6.40;99.90;;;;;;4885901;29;20495;-94
2021/03/12 02:49:55;;;;;;;1.43;0.50;;;6.30;99.90;;;;;;4885510;29;20523;-92
2021/03/12 02:52:21;;;;;;;1.20;0.40;;;6.20;99.90;;;;;;4881421;29;20475;-92
2021/03/12 02:54:48;;;;;;;2.73;0.70;;;6.20;99.90;;;;;;4882820;29;20437;-94
2021/03/12 02:57:17;;;;;;;2.00;0.50;;;6.20;99.90;;;;;;4904187;29;20452;-95
2021/03/12 02:59:44;;;;;;;3.30;0.40;;;6.20;99.90;;;;;;4897650;29;20507;-93
2021/03/12 03:02:10;;;;;;;1.07;0.40;;;6.20;99.90;;;;;;4886117;29;21456;-91
2021/03/12 03:04:46;;;;;;;2.53;0.60;;;6.10;99.90;;;;;;4884356;29;20823;-92
2021/03/12 03:07:13;;;;;;;1.83;0.77;;;6.20;99.90;;;;;;4887636;29;20476;-91
2021/03/12 03:09:40;;;;;;;1.17;0.70;;;6.10;99.90;;;;;;4886416;29;20446;-93
2021/03/12 03:12:11;;;;;;;2.10;0.77;;;6.10;99.90;;;;;;4882118;29;20528;-93
2021/03/12 03:14:38;;;;;;;2.60;0.90;;;6.00;99.90;;;;;;4876092;29;20858;-93
2021/03/12 03:17:08;;;;;;;3.57;0.83;;;6.00;99.90;;;;;;4881824;29;20473;-93
2021/03/12 03:19:39;;;;;;;1.43;0.50;;;6.00;99.90;;;;;;4883627;29;20461;-94
2021/03/12 03:22:05;;;;;;;1.23;0.40;;;6.00;99.90;;;;;;4899557;29;21013;-92
2021/03/12 03:24:31;;;;;;;7.70;0.97;;;6.00;99.90;;;;;;4882721;29;20567;-91
2021/03/12 03:26:57;;;;;;;1.67;0.50;;;6.00;99.90;;;;;;4885552;29;20487;-91
2021/03/12 03:29:24;;;;;;;1.50;0.60;;;5.90;99.90;;;;;;4880245;29;20441;-91
2021/03/12 03:31:50;;;;;;;1.40;0.50;;;5.90;99.90;;;;;;4882824;29;20281;-92
2021/03/12 03:34:16;;;;;;;1.73;0.40;;;5.70;99.90;;;;;;4897965;29;20555;-92
2021/03/12 03:36:43;;;;;;;1.07;0.73;;;5.60;99.90;;;;;;4887409;29;20439;-92
2021/03/12 03:39:10;;;;;;;0.50;0.40;;;5.60;99.90;;;;;;4883608;29;20452;-91
2021/03/12 03:41:44;;;;;;;3.10;0.90;;;5.70;99.90;;;;;;4898337;29;20496;-93
2021/03/12 03:44:12;;;;;;;2.23;0.50;;;5.70;99.90;;;;;;4881863;29;20480;-91
2021/03/12 03:46:43;;;;;;;1.70;0.63;;;5.70;99.90;;;;;;4880941;29;20555;-90
2021/03/12 03:49:13;;;;;;;1.13;0.63;;;5.70;99.90;;;;;;4883150;29;20448;-91
2021/03/12 03:51:40;;;;;;;4.20;0.67;;;5.80;99.90;;;;;;4881342;29;20452;-91
2021/03/12 03:54:07;;;;;;;1.70;0.40;;;5.70;99.90;;;;;;4884271;29;21106;-92
2021/03/12 03:56:36;;;;;;;3.10;1.20;;;5.70;99.90;;;;;;4882509;29;20451;-91
2021/03/12 03:59:03;;;;;;;1.60;0.60;;;5.70;99.90;;;;;;4898128;29;20452;-91
2021/03/12 04:01:30;;;;;;;4.83;1.10;;;5.70;99.90;;;;;;4883850;29;20460;-91
2021/03/12 04:03:55;;;;;;;4.40;0.60;;;5.60;99.90;;;;;;4880312;29;20440;-92
2021/03/12 04:06:22;;;;;;;4.03;0.73;;;5.60;99.90;;;;;;4885223;29;21380;-94
2021/03/12 04:08:48;;;;;;;4.23;0.63;;;5.60;99.90;;;;;;4882483;29;20208;-92
2021/03/12 04:11:14;;;;;;;0.80;0.50;;;5.60;99.90;;;;;;4886524;29;20465;-92
2021/03/12 04:13:44;;;;;;;4.10;1.33;;;5.70;99.90;;;;;;4881231;29;20460;-91
2021/03/12 04:16:10;;;;;;;5.13;1.33;;;5.70;99.90;;;;;;4884672;29;20584;-92
2021/03/12 04:18:36;;;;;;;4.27;0.60;;;5.60;99.90;;;;;;4880367;29;20480;-92
2021/03/12 04:21:02;;;;;;;1.33;0.80;;;5.60;99.90;;;;;;4884633;29;20686;-94
2021/03/12 04:23:28;;;;;;;0.97;0.50;;;5.60;99.90;;;;;;4884104;29;20600;-93
2021/03/12 04:25:55;;;;;;;1.60;0.50;;;5.70;99.90;;;;;;4904923;29;20484;-94
2021/03/12 04:28:21;;;;;;;0.50;0.47;;;5.70;99.90;;;;;;4886152;29;20519;-94
2021/03/12 04:30:47;;;;;;;4.03;0.83;;;5.80;99.90;;;;;;4887890;29;20448;-92
2021/03/12 04:33:16;;;;;;;0.67;0.50;;;5.80;99.90;;;;;;4886871;29;20444;-92
2021/03/12 04:35:42;;;;;;;2.17;0.70;;;5.90;99.90;;;;;;4887607;29;20523;-92
2021/03/12 04:38:08;;;;;;;2.90;0.63;;;6.00;99.90;;;;;;4887987;29;21136;-94
2021/03/12 04:40:35;;;;;;;0.80;0.47;;;6.10;99.90;;;;;;4888622;29;20464;-92
2021/03/12 04:43:01;;;;;;;1.90;0.70;;;6.20;99.90;;;;;;4887395;29;21811;-93
2021/03/12 04:45:27;;;;;;;1.90;0.60;;;6.10;99.90;;;;;;4885197;29;20477;-92
2021/03/12 04:47:56;;;;;;;2.40;0.60;;;6.10;99.90;;;;;;4888527;29;20988;-93
2021/03/12 04:50:24;;;;;;;2.70;0.70;;;6.20;99.90;;;;;;4886567;29;20547;-92
2021/03/12 04:52:52;;;;;;;1.07;0.67;;;6.20;99.90;;;;;;4883668;29;20443;-92
2021/03/12 04:55:18;;;;;;;1.50;0.57;;;6.20;99.90;;;;;;4880715;29;20508;-93
2021/03/12 04:57:44;;;;;;;2.03;0.93;;;6.10;99.90;;;;;;4886584;29;20480;-93
2021/03/12 05:00:12;;;;;;;3.03;0.80;;;6.10;99.90;;;;;;4884393;29;20459;-92
2021/03/12 05:02:38;;;;;;;1.70;1.00;;;6.00;99.90;;;;;;4884990;29;20468;-93
2021/03/12 05:05:07;;;;;;;4.07;0.90;;;5.90;99.90;;;;;;4884238;29;20580;-93
2021/03/12 05:07:33;;;;;;;2.80;1.20;;;5.90;99.90;;;;;;4904889;29;20480;-93
2021/03/12 05:10:00;;;;;;;3.03;1.10;;;5.80;99.90;;;;;;4886642;29;21113;-94
2021/03/12 05:12:26;;;;;;;2.03;0.83;;;5.70;99.90;;;;;;4884258;29;20555;-92
2021/03/12 05:14:52;;;;;;;3.07;0.73;;;5.70;99.90;;;;;;4899622;29;20527;-91
2021/03/12 05:17:17;;;;;;;3.93;1.10;;;5.60;99.90;;;;;;4898910;29;20200;-92
2021/03/12 05:19:43;;;;;;;2.00;0.53;;;5.60;99.90;;;;;;4882930;29;20208;-88
2021/03/12 05:22:09;;;;;;;0.93;0.50;;;5.60;99.90;;;;;;4881302;29;21407;-88
2021/03/12 05:24:34;;;;;;;5.20;1.00;;;5.60;99.90;;;;;;4881569;29;20686;-86
2021/03/12 05:27:00;;;;;;;2.40;0.90;;;5.60;99.90;;;;;;4882669;29;21503;-90
2021/03/12 05:29:26;;;;;;;3.20;0.60;;;5.60;99.90;;;;;;4884254;29;20191;-92
2021/03/12 05:31:52;;;;;;;1.50;0.67;;;5.60;99.90;;;;;;4886221;29;20460;-93
2021/03/12 05:34:17;;;;;;;4.40;0.77;;;5.50;99.90;;;;;;4872028;29;20872;-94
2021/03/12 05:36:43;;;;;;;2.50;0.80;;;5.50;99.90;;;;;;4884093;29;20701;-91
2021/03/12 05:39:09;;;;;;;0.63;0.40;;;5.50;99.90;;;;;;4902296;29;20606;-91
2021/03/12 05:41:38;;;;;;;1.50;0.83;;;5.40;99.90;;;;;;4900768;29;20327;-91
2021/03/12 05:44:06;;;;;;;1.63;0.90;;;5.40;99.90;;;;;;4884421;29;20806;-92
2021/03/12 05:46:35;;;;;;;2.47;0.77;;;5.40;99.90;;;;;;4897630;29;20467;-88
2021/03/12 05:49:02;;;;;;;1.73;0.63;;;5.50;99.90;;;;;;4886316;29;20474;-87
2021/03/12 05:51:29;;;;;;;3.13;0.77;;;5.40;99.90;;;;;;4886437;29;20506;-86
2021/03/12 05:53:55;;;;;;;3.13;1.00;;;5.50;99.90;;;;;;4899062;29;20940;-87
2021/03/12 05:56:20;;;;;;;2.20;0.60;;;5.60;99.90;;;;;;4885460;29;20557;-85
2021/03/12 05:58:49;;;;;;;2.40;0.70;;;5.60;99.90;;;;;;4901703;29;20196;-85
2021/03/12 06:01:25;;;;;;;5.10;1.47;;;5.50;99.90;;;;;;4889392;29;20535;-86
2021/03/12 06:03:51;;;;;;;2.17;0.63;;;5.50;99.90;;;;;;4893487;29;20454;-84
2021/03/12 06:06:17;;;;;;;3.13;0.70;;;5.50;99.90;;;;;;4904243;29;20480;-84
2021/03/12 06:08:43;;;;;;;4.43;0.90;;;5.50;99.90;;;;;;4895076;29;20494;-83
2021/03/12 06:11:09;;;;;;;1.50;1.10;;;5.40;99.90;;;;;;4885372;29;20187;-83
2021/03/12 06:13:52;;;;;;;1.80;1.00;;;5.40;99.90;;;;;;4884969;29;20459;-84
2021/03/12 06:16:29;;;;;;;4.07;0.70;;;5.30;99.90;;;;;;4885195;29;20195;-84
2021/03/12 06:19:14;;;;;;;2.20;0.93;;;5.20;99.90;;;;;;4901024;29;20468;-84
2021/03/12 06:21:41;;;;;;;3.63;0.63;;;5.20;99.90;;;;;;4902394;29;20982;-86
2021/03/12 06:24:28;;;;;;;1.90;0.47;;;5.20;99.90;;;;;;4886627;29;20468;-84
2021/03/12 06:26:55;;;;;;;1.40;0.50;;;5.20;99.90;;;;;;4895606;29;20487;-86
2021/03/12 06:29:39;;;;;;;0.83;0.50;;;5.20;99.90;;;;;;4882778;29;20444;-85
2021/03/12 06:32:06;;;;;;;0.77;0.50;;;5.20;99.90;;;;;;4873381;29;20447;-86
2021/03/12 06:34:33;;;;;;;0.77;0.50;;;5.30;99.90;;;;;;4879358;29;20448;-85
2021/03/12 06:36:59;;;;;;;1.53;1.00;;;5.20;99.90;;;;;;4877389;29;20788;-85
2021/03/12 06:39:36;;;;;;;1.17;0.50;;;5.20;99.90;;;;;;4882916;29;20456;-87
2021/03/12 06:42:09;;;;;;;1.43;0.80;;;5.30;99.90;;;;;;4897696;29;20857;-85
2021/03/12 06:44:37;;;;;;;4.13;0.80;;;5.40;99.90;;;;;;4895496;29;20523;-85
2021/03/12 06:47:04;;;;;;;3.17;1.30;;;5.50;99.90;;;;;;4880530;29;21178;-85
2021/03/12 06:49:30;;;;;;;2.57;0.77;;;5.70;99.90;;;;;;4878788;29;20448;-86
2021/03/12 06:52:00;;;;;;;3.77;1.10;;;5.90;99.90;;;;;;4881740;29;20543;-86
2021/03/12 06:54:30;;;;;;;4.03;1.20;;;6.10;99.90;;;;;;4880109;29;20452;-85
2021/03/12 06:56:56;;;;;;;2.00;0.60;;;6.20;99.90;;;;;;4879600;29;20465;-84
2021/03/12 06:59:31;;;;;;;4.03;1.37;;;6.40;99.90;;;;;;4897616;29;20464;-84
2021/03/12 07:02:06;;;;;;;1.60;0.60;;;6.40;99.90;;;;;;4898223;29;20549;-86
2021/03/12 07:04:34;;;;;;;4.07;1.20;;;6.20;99.90;;;;;;4895905;29;20860;-83
2021/03/12 07:07:00;;;;;;;1.33;1.13;;;6.20;99.90;;;;;;4880051;29;20484;-84
2021/03/12 07:09:27;;;;;;;4.20;1.20;;;6.20;99.90;;;;;;4882759;29;20501;-84
2021/03/12 07:12:01;;;;;;;2.60;1.03;;;6.10;99.90;;;;;;4879449;29;20449;-83
2021/03/12 07:14:28;;;;;;;4.63;0.80;;;6.00;99.90;;;;;;4883082;29;20500;-84
2021/03/12 07:16:54;;;;;;;3.40;0.87;;;5.90;99.90;;;;;;4879129;29;20539;-84
2021/03/12 07:19:20;;;;;;;2.43;0.90;;;5.90;99.90;;;;;;4881708;29;21109;-86
2021/03/12 07:22:01;;;;;;;1.97;0.93;;;6.00;99.90;;;;;;4880052;29;20192;-89
2021/03/12 07:24:32;;;;;;;2.00;0.90;;;6.40;99.90;;;;;;4898301;29;20509;-93
2021/03/12 07:27:04;;;;;;;3.23;0.83;;;6.70;99.90;;;;;;4895288;29;20496;-92
2021/03/12 07:29:38;;;;;;;1.43;1.33;;;6.70;99.90;;;;;;4901250;29;20479;-91
2021/03/12 07:34:59;;;;;;;2.67;0.60;;;6.50;99.90;;;;;;4897522;29;20497;-95
2021/03/12 07:37:35;;;;;;;2.23;0.80;;;6.50;99.90;;;;;;4884143;29;20472;-93
2021/03/12 07:40:06;;;;;;;1.77;0.90;;;6.60;99.90;;;;;;4903536;29;20456;-94
2021/03/12 07:42:36;;;;;;;2.20;0.70;;;6.80;99.90;;;;;;4915651;29;20440;-94
2021/03/12 07:45:02;;;;;;;6.43;1.23;;;7.00;99.90;;;;;;4888231;29;20448;-95
2021/03/12 07:47:31;;;;;;;2.90;1.40;;;7.00;99.90;;;;;;4892706;29;20500;-96
2021/03/12 07:49:57;;;;;;;2.70;1.30;;;7.20;99.90;;;;;;4899731;29;20459;-89
2021/03/12 07:52:46;;;;;;;2.77;0.97;;;7.20;99.90;;;;;;4882939;29;20531;-94
2021/03/12 08:03:31;;;;;;;2.53;0.90;;;7.40;99.90;;;;;;4865979;27;20489;-94
2021/03/12 08:05:57;;;;;;;1.50;0.77;;;7.40;99.90;;;;;;4847966;29;20465;-93
2021/03/12 08:08:37;;;;;;;0.90;0.60;;;7.50;99.90;;;;;;4872639;29;20481;-94
2021/03/12 08:11:35;;;;;;;2.20;0.73;;;7.40;99.90;;;;;;4875479;29;20442;-95
2021/03/12 08:14:16;;;;;;;3.43;0.80;;;7.40;99.90;;;;;;4870890;29;20461;-93
2021/03/12 08:16:57;;;;;;;6.90;0.90;;;7.30;99.90;;;;;;4885914;29;20516;-95
2021/03/12 08:19:40;;;;;;;2.73;0.83;;;7.40;99.90;;;;;;4885764;29;21065;-96
2021/03/12 08:22:27;;;;;;;1.40;1.17;;;7.40;99.90;;;;;;4869417;29;20457;-93
2021/03/12 08:24:55;;;;;;;3.90;1.20;;;7.50;99.90;;;;;;4847675;29;20451;-96
2021/03/12 08:27:43;;;;;;;1.80;1.00;;;7.80;99.90;;;;;;4851520;29;20815;-96
2021/03/12 08:30:35;;;;;;;3.80;0.70;;;8.10;99.90;;;;;;4877019;29;20476;-96
2021/03/12 08:33:03;;;;;;;1.80;0.70;;;8.20;99.90;;;;;;4847525;29;20445;-93
2021/03/12 08:35:57;;;;;;;1.33;0.50;;;8.30;99.90;;;;;;5047789;23;20671;-95
2021/03/12 08:38:26;;;;;;;2.70;0.90;;;8.40;99.90;;;;;;4899792;29;20469;-93
2021/03/12 08:41:12;;;;;;;2.60;0.77;;;8.50;99.90;;;;;;4895184;29;20765;-93
2021/03/12 08:43:45;;;;;;;1.57;0.70;;;8.30;99.90;;;;;;4888775;29;20457;-92
2021/03/12 08:46:16;;;;;;;4.20;1.00;;;8.40;99.90;;;;;;4895068;29;20465;-94
2021/03/12 08:51:33;;;;;;;1.57;0.80;;;8.50;99.90;;;;;;4958120;23;20513;-96
2021/03/12 08:54:01;;;;;;;5.90;1.17;;;8.40;99.90;;;;;;4887218;29;20553;-95
2021/03/12 08:56:35;;;;;;;2.20;0.80;;;8.40;99.90;;;;;;4912882;29;20452;-92
2021/03/12 08:59:04;;;;;;;5.27;0.77;;;8.70;99.90;;;;;;4891631;29;20516;-90
2021/03/12 09:01:33;;;;;;;1.90;0.97;;;8.60;99.90;;;;;;4894342;29;20461;-94
2021/03/12 09:04:01;;;;;;;0.83;0.60;;;8.50;99.90;;;;;;4890876;29;20454;-94
2021/03/12 09:06:36;;;;;;;2.57;0.70;;;8.50;99.90;;;;;;4887815;29;20449;-91
2021/03/12 09:09:05;;;;;;;2.80;0.60;;;8.20;99.90;;;;;;4888907;29;20543;-92
2021/03/12 09:11:30;;;;;;;2.50;0.67;;;8.10;99.90;;;;;;4891723;29;20438;-87
2021/03/12 09:13:59;;;;;;;1.73;0.80;;;7.90;99.90;;;;;;4904241;29;20517;-85
2021/03/12 09:16:27;;;;;;;2.27;0.80;;;8.20;99.90;;;;;;4887962;29;20263;-81
2021/03/12 09:18:55;;;;;;;4.40;0.90;;;8.30;99.90;;;;;;4890419;29;20445;-92
2021/03/12 09:21:25;;;;;;;2.37;0.80;;;8.50;99.90;;;;;;4890570;29;20443;-91
2021/03/12 09:23:56;;;;;;;4.57;0.87;;;9.00;99.90;;;;;;4886172;29;20455;-94
2021/03/12 09:26:26;;;;;;;3.33;1.13;;;9.20;99.90;;;;;;4889142;29;20440;-95
2021/03/12 09:28:55;;;;;;;2.30;1.33;;;9.20;99.90;;;;;;4891620;29;20486;-90
2021/03/12 09:31:29;;;;;;;2.93;0.70;;;9.30;99.60;;;;;;4892942;29;20439;-91
2021/03/12 09:33:56;;;;;;;1.80;0.90;;;9.10;99.90;;;;;;4893098;29;20459;-91
2021/03/12 09:36:29;;;;;;;1.50;0.60;;;9.00;99.90;;;;;;4893134;29;20539;-96
2021/03/12 09:39:20;;;;;;;3.40;1.30;;;8.90;99.90;;;;;;4893625;29;20491;-93
2021/03/12 09:41:53;;;;;;;5.10;0.90;;;9.00;99.90;;;;;;4891757;29;20480;-89
2021/03/12 09:44:19;;;;;;;1.63;1.17;;;8.80;99.30;;;;;;4895325;29;20548;-93
2021/03/12 09:46:50;;;;;;;2.83;1.10;;;8.60;99.00;;;;;;4889534;29;20534;-94
2021/03/12 09:49:20;;;;;;;1.13;0.77;;;8.60;99.70;;;;;;4890827;29;20215;-91
2021/03/12 09:51:54;;;;;;;2.10;1.10;;;8.60;99.40;;;;;;4891210;29;20451;-91
2021/03/12 09:54:22;;;;;;;2.00;0.60;;;8.70;98.50;;;;;;4886405;29;20498;-93
2021/03/12 09:56:56;;;;;;;2.40;1.30;;;8.80;98.90;;;;;;4893288;29;20997;-92
2021/03/12 09:59:25;;;;;;;2.60;0.90;;;8.80;98.10;;;;;;4891259;29;20436;-92
2021/03/12 10:01:52;;;;;;;2.30;0.87;;;9.00;98.50;;;;;;4891387;29;20802;-92
2021/03/12 10:04:26;;;;;;;1.70;1.03;;;9.20;97.90;;;;;;4890966;29;20535;-91
2021/03/12 10:07:00;;;;;;;2.07;1.00;;;9.00;98.20;;;;;;4901942;29;20476;-91
2021/03/12 10:09:28;;;;;;;1.90;0.90;;;8.90;98.40;;;;;;4888906;29;20829;-90
2021/03/12 10:11:55;;;;;;;4.17;1.43;;;8.60;98.30;;;;;;4888793;29;20441;-93
2021/03/12 10:14:37;;;;;;;3.33;1.17;;;8.70;98.80;;;;;;4893334;29;20444;-93
2021/03/12 10:17:19;;;;;;;4.67;0.80;;;8.60;99.90;;;;;;4887149;29;21045;-92
2021/03/12 10:19:59;;;;;;;2.27;0.70;;;8.40;99.90;;;;;;4895982;29;20435;-92
2021/03/12 10:22:41;;;;;;;8.63;0.90;;;8.60;99.90;;;;;;4894242;29;20477;-95
2021/03/12 10:25:12;;;;;;;4.57;1.97;;;8.90;99.90;;;;;;4896052;29;21396;-95
2021/03/12 10:27:41;;;;;;;1.80;1.10;;;8.80;99.90;;;;;;4890998;29;20485;-94
2021/03/12 10:30:21;;;;;;;5.77;1.67;;;8.70;99.90;;;;;;4894194;29;20448;-96
2021/03/12 10:32:58;;;;;;;1.10;1.00;;;8.50;99.90;;;;;;4895159;29;20495;-95
2021/03/12 10:35:40;;;;;;;3.20;1.13;;;8.40;99.90;;;;;;4905583;29;20447;-96
2021/03/12 10:38:20;;;;;;;1.77;1.23;;;8.20;99.90;;;;;;4900728;29;20480;-96
2021/03/12 10:40:50;;;;;;;4.67;1.00;;;8.00;99.90;;;;;;4902161;29;20530;-93
2021/03/12 10:43:21;;;;;;;2.87;1.30;;;8.40;99.90;;;;;;4910610;29;20475;-94
2021/03/12 10:45:57;;;;;;;2.00;1.40;;;9.00;99.90;;;;;;4889419;29;20459;-95
2021/03/12 10:48:28;;;;;;;1.90;1.00;;;9.00;99.90;;;;;;4887574;29;20483;-94
2021/03/12 10:51:00;;;;;;;3.87;0.90;;;8.60;99.90;;;;;;4892300;29;20467;-95
2021/03/12 10:53:26;;;;;;;2.60;1.00;;;8.50;99.90;;;;;;4889194;29;20827;-95
2021/03/12 10:56:01;;;;;;;1.93;0.90;;;8.60;99.90;;;;;;4896828;29;20501;-95
2021/03/12 10:58:29;;;;;;;2.50;1.20;;;8.80;99.90;;;;;;4896579;29;20201;-96
2021/03/12 11:01:18;;;;;;;1.57;0.93;;;9.30;99.90;;;;;;4897815;29;20456;-96
2021/03/12 11:03:44;;;;;;;2.07;0.80;;;8.90;99.90;;;;;;4889645;29;20539;-91
2021/03/12 11:06:11;;;;;;;3.63;1.07;;;8.70;99.90;;;;;;4881825;29;20441;-86
2021/03/12 11:08:37;;;;;;;3.37;1.10;;;8.50;99.90;;;;;;4881661;29;20495;-88
2021/03/12 11:11:05;;;;;;;0.97;0.70;;;8.50;99.90;;;;;;4902698;29;20894;-84
2021/03/12 11:13:32;;;;;;;1.23;0.60;;;8.20;99.90;;;;;;4906769;29;20442;-89
2021/03/12 11:15:58;;;;;;;2.73;0.90;;;7.80;99.90;;;;;;4886996;29;20648;-89
2021/03/12 11:18:29;;;;;;;3.23;1.57;;;7.40;99.90;;;;;;4897696;29;20463;-90
2021/03/12 11:20:55;;;;;;;2.40;1.30;;;7.40;99.90;;;;;;4888655;29;20288;-89
2021/03/12 11:23:21;;;;;;;3.67;1.23;;;7.90;99.90;;;;;;4890291;29;21102;-89
2021/03/12 11:25:47;;;;;;;4.00;1.10;;;8.80;99.90;;;;;;4885708;29;20451;-87
2021/03/12 11:28:13;;;;;;;0.70;0.70;;;9.30;99.90;;;;;;4887691;29;20511;-86
2021/03/12 11:30:38;;;;;;;1.40;0.83;;;9.30;99.90;;;;;;4888500;29;20189;-85
2021/03/12 11:33:04;;;;;;;2.00;1.00;;;9.50;99.90;;;;;;4890536;29;20815;-86
2021/03/12 11:35:31;;;;;;;4.60;1.17;;;9.00;99.90;;;;;;4888651;29;20212;-86
2021/03/12 11:37:57;;;;;;;3.70;1.30;;;8.70;99.90;;;;;;4908981;29;20480;-85
2021/03/12 11:40:23;;;;;;;2.20;0.90;;;8.50;99.90;;;;;;4890904;29;20456;-85
2021/03/12 11:42:49;;;;;;;2.87;1.37;;;8.30;99.90;;;;;;4889154;29;20449;-85
2021/03/12 11:45:16;;;;;;;4.27;1.23;;;8.00;99.90;;;;;;4890520;29;22305;-84
2021/03/12 11:47:43;;;;;;;2.80;0.90;;;7.50;99.90;;;;;;4887196;29;20223;-84
2021/03/12 11:50:12;;;;;;;2.73;1.50;;;7.60;99.90;;;;;;4885478;29;20450;-86
2021/03/12 11:52:38;;;;;;;1.20;0.97;;;8.40;99.90;;;;;;4884749;29;20448;-85
2021/03/12 11:55:07;;;;;;;0.93;0.70;;;9.30;99.90;;;;;;4882907;29;20502;-85
2021/03/12 11:57:34;;;;;;;0.90;0.83;;;9.20;99.90;;;;;;4884575;29;20219;-84
2021/03/12 12:00:03;;;;;;;4.67;1.40;;;9.40;99.90;;;;;;4888347;29;20502;-84
2021/03/12 12:02:29;;;;;;;2.60;1.00;;;8.90;99.90;;;;;;4887629;29;20502;-83
2021/03/12 12:04:55;;;;;;;5.33;1.40;;;8.50;99.90;;;;;;4883578;29;20461;-84
2021/03/12 12:07:21;;;;;;;2.50;1.03;;;8.40;99.90;;;;;;4881684;29;20491;-84
2021/03/12 12:09:46;;;;;;;11.43;0.80;;;8.20;99.90;;;;;;4882963;29;20184;-83
2021/03/12 12:12:13;;;;;;;1.30;0.90;;;8.20;99.90;;;;;;4884476;29;20535;-84
2021/03/12 12:14:39;;;;;;;0.70;0.50;;;9.00;99.90;;;;;;4881918;29;20798;-83
2021/03/12 12:17:06;;;;;;;1.43;0.60;;;9.80;99.90;;;;;;4880117;29;20472;-84
2021/03/12 12:19:32;;;;;;;1.43;0.43;;;10.20;99.70;;;;;;4880368;29;20452;-87
2021/03/12 12:22:00;;;;;;;0.70;0.60;;;10.50;97.80;;;;;;4881991;29;20477;-86
2021/03/12 12:24:27;;;;;;;2.60;2.40;;;11.10;95.90;;;;;;4889376;29;20970;-86
2021/03/12 12:26:52;;;;;;;4.20;0.80;;;11.30;93.90;;;;;;4884201;29;20519;-85
2021/03/12 12:29:18;;;;;;;1.00;0.60;;;11.10;94.30;;;;;;4886188;29;20480;-85
2021/03/12 12:31:44;;;;;;;1.33;0.80;;;10.80;95.70;;;;;;4887121;29;20197;-86
2021/03/12 12:34:10;;;;;;;2.03;0.67;;;11.10;96.50;;;;;;4888430;29;20239;-87
2021/03/12 12:36:35;;;;;;;2.03;0.73;;;11.00;96.80;;;;;;4888621;29;20443;-85
2021/03/12 12:39:05;;;;;;;3.60;0.70;;;10.10;96.90;;;;;;4878160;29;20277;-84
2021/03/12 12:41:31;;;;;;;4.80;1.00;;;9.60;98.60;;;;;;4880985;29;20668;-84
2021/03/12 12:43:56;;;;;;;2.50;0.70;;;10.30;99.60;;;;;;4885267;29;20462;-85
2021/03/12 12:46:22;;;;;;;0.70;0.60;;;11.40;98.70;;;;;;4892473;29;20231;-85
2021/03/12 12:48:48;;;;;;;2.47;0.90;;;11.90;93.10;;;;;;4892533;29;20314;-85
2021/03/12 12:51:14;;;;;;;1.83;1.00;;;11.30;91.70;;;;;;4888368;29;20204;-84
2021/03/12 12:53:42;;;;;;;4.70;1.20;;;11.50;93.10;;;;;;4887419;29;20463;-84
2021/03/12 12:56:08;;;;;;;0.73;0.57;;;11.50;92.20;;;;;;4891788;29;20204;-85
2021/03/12 12:58:35;;;;;;;2.40;0.67;;;11.30;92.00;;;;;;4885624;29;21070;-85
2021/03/12 13:01:00;;;;;;;1.30;0.90;;;11.30;91.10;;;;;;4888002;29;21052;-85
2021/03/12 13:03:27;;;;;;;1.27;0.70;;;10.40;92.10;;;;;;4883579;29;20549;-85
2021/03/12 13:05:53;;;;;;;1.30;0.73;;;10.20;93.70;;;;;;4891087;29;20191;-84
2021/03/12 13:08:19;;;;;;;1.60;0.77;;;11.10;92.50;;;;;;4886074;29;20504;-85
2021/03/12 13:10:45;;;;;;;1.83;0.80;;;11.30;90.70;;;;;;4888747;29;20199;-84
2021/03/12 13:13:13;;;;;;;2.67;0.87;;;10.90;91.30;;;;;;4887831;29;20492;-85
2021/03/12 13:15:39;;;;;;;2.83;0.80;;;10.50;91.00;;;;;;4886412;29;20495;-84
2021/03/12 13:18:05;;;;;;;4.13;1.13;;;10.20;90.50;;;;;;4887131;29;24290;-84
2021/03/12 13:20:32;;;;;;;1.63;0.80;;;10.00;91.70;;;;;;4885106;29;20201;-84